ウィーン の空港の天気 - METARとTAF

ウィーン国際空港 ( LOWW / VIE ) - オーストリア ウィーン
飛行場実況気象(Metar)
観測時間10/20 19:50 CEST (10/20 17:50 UTC)
風向・風速北北西 4m/s
視程10km以上
天気現象
少しの雲 雲底高度 910m
全天の8割程度の雲 雲底高度 1100m
気温14℃
湿度72%
気圧1025hPa
METARLOWW 201750Z 33008KT 9999 FEW030 BKN036 14/09 Q1025 NOSIG
過去の天気等 Google飛行場航空写真 Wunderground天気予報

過去48時間のMETAR

飛行場予報(TAF)
発表時間: 10/20 19:15 CEST (10/20 17:15 UTC)
予報対象時間: 20日20時 CEST ~ 22日2時 CEST
風向・風速北北西 5m/s
視程10km以上
全天の4割程度の雲 雲底高度 1220m
21日10時 CEST ~ 21日17時 CEST に一時的に
風向・風速北 8m/s 瞬間風速 13m/s
天気現象弱いしゅう雨
全天の8割程度の雲 雲底高度 910m
少しの塔状積雲 雲底高度 1220m
21日11時 CEST ~ 21日15時 CEST に 確率 30% で一時的に
天気現象しゅう雨
全天の8割程度の雲 雲底高度 760m
少しの積乱雲 雲底高度 910m
TAF LOWW 201715Z 2018/2124 34010KT 9999 SCT040 TX13/2018Z TN08/2124Z
TEMPO 2108/2115 36015G25KT -SHRA BKN030 FEW040TCU
PROB30 TEMPO 2109/2113 SHRA BKN025 FEW030CB